Linz Airport LOWL

Flugplatz Daten

Name: Linz Airport

Ident: LOWL

Lat: 48,23320007

Long: 14,1875

Platzhöhe: 978 ft

IataCode: LNZ

City: Linz

Homepage: http://www.flughafen-linz.at/

Metar

2021/10/25 18:20
LOWL 251820Z AUTO 25004KT CAVOK 05/03 Q1021 NOSIG

Taf

2021/10/25 18:21
TAF LOWL 251715Z 2518/2618 VRB03KT CAVOK TX11/2614Z TN02/2602Z
BECMG 2522/2601 2500 NSC
TEMPO 2602/2609 0400 FG BKN001
BECMG 2609/2611 27004KT 9999 SCT070

Webcams

Airport
Gewünschte Webcam nicht vorhanden? Dann fügen Sie eine hinzu. Sie wird dann so schnell wie möglich freigeschaltet
Url: Title: